createdAt,value
2019-04-07T00:01:51.432Z,100745.55
2019-04-07T00:04:20.342Z,100741.66
2019-04-07T00:06:48.960Z,100741.17
2019-04-07T00:09:17.651Z,100746.72
2019-04-07T00:11:46.167Z,100740.63
2019-04-07T00:14:14.666Z,100740.09
2019-04-07T00:16:44.180Z,100740.09
2019-04-07T00:19:12.646Z,100740.89
2019-04-07T00:21:41.152Z,100740.84
2019-04-07T00:24:10.237Z,100740.79
2019-04-07T00:26:39.382Z,100745.14
2019-04-07T00:29:07.926Z,100739.44
2019-04-07T00:31:36.399Z,100742.39
2019-04-07T00:34:05.296Z,100741.00
2019-04-07T00:36:34.170Z,100751.33
2019-04-07T00:39:02.730Z,100743.46
2019-04-07T00:41:31.205Z,100746.84
2019-04-07T00:44:00.018Z,100742.42
2019-04-07T00:46:28.890Z,100749.69
2019-04-07T00:48:57.829Z,100750.05
2019-04-07T00:51:26.745Z,100755.53
2019-04-07T00:53:55.282Z,100752.83
2019-04-07T00:56:23.720Z,100756.20
2019-04-07T00:58:52.424Z,100757.86
2019-04-07T01:01:20.848Z,100763.40
2019-04-07T01:03:49.308Z,100759.77
2019-04-07T01:06:17.819Z,100760.13
2019-04-07T01:08:46.367Z,100758.29
2019-04-07T01:11:14.837Z,100766.44
2019-04-07T01:13:43.344Z,100762.44
2019-04-07T01:16:11.952Z,100759.31
2019-04-07T01:18:41.755Z,100760.10
2019-04-07T01:21:10.209Z,100761.32
2019-04-07T01:23:39.130Z,100766.91
2019-04-07T01:26:07.634Z,100763.77
2019-04-07T01:28:36.327Z,100767.59
2019-04-07T01:31:05.517Z,100770.52
2019-04-07T01:33:34.200Z,100766.15
2019-04-07T01:36:02.668Z,100772.47
2019-04-07T01:38:31.128Z,100769.39
2019-04-07T01:41:04.824Z,100771.53
2019-04-07T01:43:37.412Z,100764.58
2019-04-07T01:46:16.448Z,100764.45
2019-04-07T01:48:53.215Z,100763.94
2019-04-07T01:51:29.113Z,100766.02
2019-04-07T01:54:17.569Z,100768.02
2019-04-07T01:57:04.513Z,100769.70
2019-04-07T01:59:37.659Z,100764.44
2019-04-07T02:02:08.113Z,100764.75
2019-04-07T02:04:47.917Z,100760.80
2019-04-07T02:07:20.654Z,100772.33
2019-04-07T02:10:02.620Z,100767.89
2019-04-07T02:12:50.757Z,100763.47
2019-04-07T02:15:35.853Z,100769.33
2019-04-07T02:18:06.065Z,100758.37
2019-04-07T02:20:59.057Z,100763.86
2019-04-07T02:23:35.493Z,100767.16
2019-04-07T02:26:06.050Z,100768.28
2019-04-07T02:28:52.605Z,100761.27
2019-04-07T02:31:23.503Z,100765.48
2019-04-07T02:33:54.505Z,100759.33
2019-04-07T02:36:43.205Z,100764.34
2019-04-07T02:39:13.456Z,100758.68
2019-04-07T02:42:00.360Z,100761.95
2019-04-07T02:44:31.489Z,100765.73
2019-04-07T02:47:02.963Z,100759.62
2019-04-07T02:49:45.738Z,100765.13
2019-04-07T02:52:16.596Z,100774.92
2019-04-07T02:54:46.873Z,100770.91
2019-04-07T02:57:17.018Z,100768.69
2019-04-07T02:59:47.912Z,100775.55
2019-04-07T03:02:18.207Z,100765.55
2019-04-07T03:04:48.331Z,100777.11
2019-04-07T03:07:21.686Z,100770.09
2019-04-07T03:09:51.966Z,100774.31
2019-04-07T03:12:31.716Z,100780.72
2019-04-07T03:15:11.202Z,100776.37
2019-04-07T03:17:44.162Z,100774.94
2019-04-07T03:20:17.226Z,100770.98
2019-04-07T03:22:47.441Z,100772.95
2019-04-07T03:25:18.455Z,100772.95
2019-04-07T03:27:54.722Z,100767.22
2019-04-07T03:30:37.587Z,100777.58
2019-04-07T03:33:26.093Z,100778.81
2019-04-07T03:36:16.091Z,100763.62
2019-04-07T03:38:44.033Z,100772.02
2019-04-07T03:41:33.239Z,100772.89
2019-04-07T03:44:03.437Z,100762.84
2019-04-07T03:46:41.072Z,100762.84
2019-04-07T03:49:14.051Z,100779.03
2019-04-07T03:51:53.176Z,100779.03
2019-04-07T03:54:24.202Z,100762.11
2019-04-07T03:57:03.338Z,100775.43
2019-04-07T03:59:33.530Z,100773.20
2019-04-07T04:02:06.751Z,100775.69
2019-04-07T04:04:45.724Z,100779.90
2019-04-07T04:07:25.544Z,100785.43
2019-04-07T04:09:53.842Z,100781.50
2019-04-07T04:12:39.209Z,100776.26
2019-04-07T04:15:12.928Z,100776.26
2019-04-07T04:17:41.424Z,100775.61
2019-04-07T04:20:10.596Z,100775.61
2019-04-07T04:22:39.664Z,100770.33
2019-04-07T04:25:10.518Z,100778.43
2019-04-07T04:27:39.218Z,100778.43
2019-04-07T04:30:12.002Z,100773.19
2019-04-07T04:32:41.407Z,100770.86
2019-04-07T04:35:10.802Z,100777.30
2019-04-07T04:37:44.171Z,100783.10
2019-04-07T04:40:09.696Z,100783.10
2019-04-07T04:42:38.172Z,100790.30
2019-04-07T04:45:08.534Z,100786.27
2019-04-07T04:47:37.682Z,100786.27
2019-04-07T04:50:08.085Z,100780.67
2019-04-07T04:52:36.865Z,100781.44
2019-04-07T04:55:05.654Z,100781.44
2019-04-07T04:57:35.153Z,100779.31
2019-04-07T05:00:06.234Z,100779.31
2019-04-07T05:02:34.843Z,100768.78
2019-04-07T05:05:05.319Z,100768.78
2019-04-07T05:07:48.858Z,100787.30
2019-04-07T05:10:05.751Z,100778.30
2019-04-07T05:12:34.239Z,100784.41
2019-04-07T05:15:04.096Z,100786.38
2019-04-07T05:17:32.715Z,100778.16
2019-04-07T05:20:01.371Z,100778.16
2019-04-07T05:22:29.896Z,100782.19
2019-04-07T05:24:58.370Z,100793.75
2019-04-07T05:27:27.843Z,100790.11
2019-04-07T05:29:56.721Z,100789.08
2019-04-07T05:32:25.271Z,100793.55
2019-04-07T05:34:55.632Z,100787.62
2019-04-07T05:37:26.128Z,100790.81
2019-04-07T05:39:55.000Z,100790.09
2019-04-07T05:42:23.557Z,100807.87
2019-04-07T05:44:52.016Z,100830.22
2019-04-07T05:47:21.288Z,100807.41
2019-04-07T05:49:49.982Z,100821.59
2019-04-07T05:52:19.189Z,100820.75
2019-04-07T05:54:49.911Z,100820.91
2019-04-07T05:57:18.610Z,100820.64
2019-04-07T05:59:47.268Z,100828.20
2019-04-07T06:02:15.729Z,100826.80
2019-04-07T06:04:44.366Z,100826.69
2019-04-07T06:07:14.831Z,100828.73
2019-04-07T06:09:43.775Z,100825.16
2019-04-07T06:12:12.830Z,100834.08
2019-04-07T06:14:41.752Z,100835.69
2019-04-07T06:17:10.851Z,100833.45
2019-04-07T06:19:41.172Z,100836.41
2019-04-07T06:22:10.081Z,100839.70
2019-04-07T06:24:38.541Z,100840.87
2019-04-07T06:27:07.093Z,100846.81
2019-04-07T06:29:36.668Z,100841.50
2019-04-07T06:32:07.265Z,100844.78
2019-04-07T06:34:35.384Z,100850.66
2019-04-07T06:37:04.438Z,100842.69
2019-04-07T06:39:32.914Z,100844.18
2019-04-07T06:42:02.477Z,100841.84
2019-04-07T06:44:31.277Z,100838.22
2019-04-07T06:47:04.673Z,100838.52
2019-04-07T06:49:34.886Z,100834.45
2019-04-07T06:52:04.998Z,100836.04
2019-04-07T06:54:54.968Z,100844.48
2019-04-07T06:57:28.312Z,100835.28
2019-04-07T07:00:10.823Z,100838.64
2019-04-07T07:03:02.886Z,100840.66
2019-04-07T07:05:48.315Z,100834.89
2019-04-07T07:08:43.254Z,100831.28
2019-04-07T07:11:24.801Z,100841.08
2019-04-07T07:13:45.068Z,100841.77
2019-04-07T07:16:18.254Z,100849.34
2019-04-07T07:19:05.244Z,100844.84
2019-04-07T07:21:41.532Z,100845.07
2019-04-07T07:24:10.438Z,100852.61
2019-04-07T07:26:39.567Z,100848.94
2019-04-07T07:29:08.354Z,100854.33
2019-04-07T07:31:36.989Z,100855.80
2019-04-07T07:34:05.526Z,100853.41
2019-04-07T07:36:34.050Z,100855.30
2019-04-07T07:39:08.291Z,100853.34
2019-04-07T07:41:32.751Z,100855.27
2019-04-07T07:44:03.595Z,100856.34
2019-04-07T07:46:32.242Z,100861.29
2019-04-07T07:49:02.069Z,100859.73
2019-04-07T07:51:31.394Z,100861.66
2019-04-07T07:54:01.832Z,100867.87
2019-04-07T07:56:30.301Z,100865.46
2019-04-07T07:59:00.215Z,100862.63
2019-04-07T08:01:29.012Z,100865.83
2019-04-07T08:03:58.654Z,100862.46
2019-04-07T08:06:27.400Z,100860.87
2019-04-07T08:09:07.621Z,100858.39
2019-04-07T08:11:26.080Z,100859.39
2019-04-07T08:13:55.403Z,100863.42
2019-04-07T08:16:24.045Z,100860.06
2019-04-07T08:18:52.536Z,100858.42
2019-04-07T08:21:21.034Z,100854.60
2019-04-07T08:23:52.460Z,100856.02
2019-04-07T08:26:24.362Z,100860.44
2019-04-07T08:28:51.398Z,100858.33
2019-04-07T08:31:21.450Z,100863.16
2019-04-07T08:33:51.586Z,100859.28
2019-04-07T08:36:20.869Z,100854.98
2019-04-07T08:38:51.798Z,100861.97
2019-04-07T08:41:19.535Z,100856.78
2019-04-07T08:43:53.280Z,100859.88
2019-04-07T08:46:20.100Z,100836.81
2019-04-07T08:48:51.773Z,100858.55
2019-04-07T08:51:20.049Z,100859.41
2019-04-07T08:53:48.543Z,100855.47
2019-04-07T08:56:18.364Z,100859.34
2019-04-07T08:58:46.889Z,100858.88
2019-04-07T09:01:19.324Z,100859.28
2019-04-07T09:03:47.332Z,100853.16
2019-04-07T09:06:16.298Z,100853.11
2019-04-07T09:08:44.994Z,100854.84
2019-04-07T09:11:15.840Z,100849.55
2019-04-07T09:13:46.553Z,100856.91
2019-04-07T09:16:18.544Z,100851.61
2019-04-07T09:19:01.098Z,100851.95
2019-04-07T09:21:38.638Z,100852.31
2019-04-07T09:24:30.624Z,100846.06
2019-04-07T09:27:23.016Z,100850.41
2019-04-07T09:29:52.371Z,100849.45
2019-04-07T09:32:39.534Z,100849.34
2019-04-07T09:35:10.221Z,100851.48
2019-04-07T09:37:55.991Z,100851.40
2019-04-07T09:40:29.120Z,100849.11
2019-04-07T09:43:01.116Z,100855.09
2019-04-07T09:45:47.939Z,100848.48
2019-04-07T09:48:22.867Z,100844.47
2019-04-07T09:50:55.431Z,100843.89
2019-04-07T09:53:40.355Z,100846.42
2019-04-07T09:56:16.343Z,100848.48
2019-04-07T09:59:00.320Z,100849.69
2019-04-07T10:01:40.130Z,100851.77
2019-04-07T10:04:12.037Z,100850.83
2019-04-07T10:06:51.224Z,100847.25
2019-04-07T10:09:36.823Z,100847.19
2019-04-07T10:12:24.821Z,100841.44
2019-04-07T10:15:12.084Z,100842.69
2019-04-07T10:17:52.380Z,100842.22
2019-04-07T10:20:38.652Z,100841.21
2019-04-07T10:23:17.826Z,100838.91
2019-04-07T10:26:04.282Z,100834.39
2019-04-07T10:28:36.707Z,100838.61
2019-04-07T10:31:09.252Z,100841.09
2019-04-07T10:33:51.897Z,100839.67
2019-04-07T10:36:22.978Z,100838.73
2019-04-07T10:39:11.045Z,100838.61
2019-04-07T10:42:00.228Z,100838.52
2019-04-07T10:44:34.098Z,100837.98
2019-04-07T10:47:21.220Z,100836.13
2019-04-07T10:50:05.159Z,100835.21
2019-04-07T10:52:48.606Z,100834.22
2019-04-07T10:55:27.679Z,100834.11
2019-04-07T10:58:00.574Z,100836.16
2019-04-07T11:00:48.804Z,100833.91
2019-04-07T11:03:26.115Z,100831.67
2019-04-07T11:06:03.937Z,100827.24
2019-04-07T11:08:37.589Z,100825.41
2019-04-07T11:11:13.525Z,100822.23
2019-04-07T11:13:46.976Z,100820.85
2019-04-07T11:16:23.268Z,100819.05
2019-04-07T11:19:09.900Z,100816.33
2019-04-07T11:21:58.034Z,100823.22
2019-04-07T11:24:43.806Z,100815.26
2019-04-07T11:27:14.797Z,100820.45
2019-04-07T11:29:44.961Z,100816.89
2019-04-07T11:32:30.526Z,100812.90
2019-04-07T11:35:07.105Z,100818.55
2019-04-07T11:37:45.875Z,100818.93
2019-04-07T11:40:41.983Z,100813.66
2019-04-07T11:43:20.804Z,100814.98
2019-04-07T11:46:09.103Z,100807.51
2019-04-07T11:48:39.403Z,100813.23
2019-04-07T11:51:18.525Z,100816.72
2019-04-07T11:53:57.774Z,100805.77
2019-04-07T11:56:37.188Z,100813.23
2019-04-07T11:59:10.268Z,100816.70
2019-04-07T12:01:46.063Z,100799.59
2019-04-07T12:04:26.749Z,100799.52
2019-04-07T12:06:56.853Z,100809.11
2019-04-07T12:09:26.978Z,100799.02
2019-04-07T12:12:13.663Z,100805.56
2019-04-07T12:14:47.172Z,100799.39
2019-04-07T12:17:16.591Z,100796.25
2019-04-07T12:19:47.314Z,100801.44
2019-04-07T12:22:32.805Z,100797.89
2019-04-07T12:25:04.445Z,100795.27
2019-04-07T12:27:45.188Z,100790.89
2019-04-07T12:30:16.495Z,100783.88
2019-04-07T12:32:46.702Z,100780.36
2019-04-07T12:35:32.985Z,100793.45
2019-04-07T12:38:12.248Z,100786.77
2019-04-07T12:40:41.063Z,100779.27
2019-04-07T12:43:13.200Z,100786.20
2019-04-07T12:45:59.362Z,100774.28
2019-04-07T12:48:45.680Z,100776.35
2019-04-07T12:51:17.614Z,100776.70
2019-04-07T12:54:07.331Z,100770.90
2019-04-07T12:56:47.796Z,100777.00
2019-04-07T12:59:19.094Z,100774.28
2019-04-07T13:01:55.123Z,100769.42
2019-04-07T13:04:28.451Z,100773.72
2019-04-07T13:06:58.832Z,100770.55
2019-04-07T13:09:33.089Z,100769.13
2019-04-07T13:12:22.690Z,100775.14
2019-04-07T13:15:11.939Z,100767.61
2019-04-07T13:17:59.618Z,100765.80
2019-04-07T13:20:44.185Z,100768.44
2019-04-07T13:23:17.678Z,100766.73
2019-04-07T13:25:50.469Z,100767.98
2019-04-07T13:28:26.047Z,100775.86
2019-04-07T13:31:12.521Z,100766.66
2019-04-07T13:34:01.284Z,100767.59
2019-04-07T13:36:50.974Z,100761.86
2019-04-07T13:39:22.377Z,100762.77
2019-04-07T13:41:55.311Z,100764.48
2019-04-07T13:44:27.153Z,100758.34
2019-04-07T13:47:14.549Z,100751.23
2019-04-07T13:49:57.405Z,100764.78
2019-04-07T13:52:31.265Z,100755.98
2019-04-07T13:55:05.100Z,100766.47
2019-04-07T13:57:42.918Z,100766.07
2019-04-07T14:00:26.307Z,100762.60
2019-04-07T14:03:12.480Z,100760.42
2019-04-07T14:05:58.998Z,100762.60
2019-04-07T14:08:37.986Z,100760.83
2019-04-07T14:11:23.429Z,100758.19
2019-04-07T14:14:00.202Z,100758.65
2019-04-07T14:16:48.690Z,100760.83
2019-04-07T14:19:22.014Z,100759.94
2019-04-07T14:21:57.974Z,100748.97
2019-04-07T14:24:44.470Z,100757.77
2019-04-07T14:27:23.774Z,100751.66
2019-04-07T14:30:01.464Z,100756.94
2019-04-07T14:32:50.637Z,100751.23
2019-04-07T14:35:24.207Z,100746.91
2019-04-07T14:37:57.239Z,100751.77
2019-04-07T14:40:29.168Z,100754.41
2019-04-07T14:43:17.746Z,100754.81
2019-04-07T14:45:59.704Z,100757.02
2019-04-07T14:48:33.560Z,100750.38
2019-04-07T14:51:13.291Z,100751.75
2019-04-07T14:54:00.022Z,100756.13
2019-04-07T14:56:48.887Z,100754.41
2019-04-07T14:59:36.496Z,100759.28
2019-04-07T15:02:06.272Z,100751.00
2019-04-07T15:04:39.992Z,100755.92
2019-04-07T15:07:26.869Z,100725.27
2019-04-07T15:10:09.541Z,100754.31
2019-04-07T15:12:57.971Z,100754.80
2019-04-07T15:15:26.822Z,100748.70
2019-04-07T15:17:55.447Z,100748.70
2019-04-07T15:20:24.960Z,100746.06
2019-04-07T15:22:53.957Z,100745.20
2019-04-07T15:25:22.672Z,100748.67
2019-04-07T15:27:52.761Z,100746.92
2019-04-07T15:30:22.199Z,100742.97
2019-04-07T15:32:51.573Z,100751.33
2019-04-07T15:35:20.210Z,100752.25
2019-04-07T15:37:51.561Z,100751.92
2019-04-07T15:40:19.281Z,100744.56
2019-04-07T15:42:50.571Z,100745.59
2019-04-07T15:45:20.097Z,100744.35
2019-04-07T15:47:51.338Z,100747.89
2019-04-07T15:50:18.577Z,100744.00
2019-04-07T15:52:47.349Z,100747.59
2019-04-07T15:55:16.742Z,100748.13
2019-04-07T15:57:45.349Z,100750.79
2019-04-07T16:00:13.889Z,100746.00
2019-04-07T16:02:43.163Z,100746.06
2019-04-07T16:05:12.490Z,100745.20
2019-04-07T16:07:41.831Z,100744.77
2019-04-07T16:10:11.006Z,100743.13
2019-04-07T16:12:46.549Z,100742.31
2019-04-07T16:15:10.846Z,100748.92
2019-04-07T16:17:40.211Z,100750.31
2019-04-07T16:20:20.685Z,100752.08
2019-04-07T16:22:47.851Z,100755.22
2019-04-07T16:25:18.361Z,100751.77
2019-04-07T16:27:47.654Z,100756.25
2019-04-07T16:30:19.155Z,100757.64
2019-04-07T16:32:46.951Z,100757.75
2019-04-07T16:35:18.389Z,100759.63
2019-04-07T16:37:47.860Z,100760.64
2019-04-07T16:40:16.747Z,100766.05
2019-04-07T16:43:00.542Z,100762.67
2019-04-07T16:45:17.803Z,100763.67
2019-04-07T16:47:46.132Z,100765.09
2019-04-07T16:50:18.109Z,100760.38
2019-04-07T16:52:44.867Z,100766.91
2019-04-07T16:55:34.883Z,100764.14
2019-04-07T16:58:05.081Z,100765.30
2019-04-07T17:00:34.418Z,100768.20
2019-04-07T17:03:05.567Z,100764.14
2019-04-07T17:05:34.229Z,100774.56
2019-04-07T17:08:02.774Z,100780.28
2019-04-07T17:10:34.147Z,100773.30
2019-04-07T17:13:09.259Z,100775.95
2019-04-07T17:15:32.786Z,100782.14
2019-04-07T17:18:02.388Z,100781.83
2019-04-07T17:20:33.681Z,100783.33
2019-04-07T17:23:01.066Z,100782.77
2019-04-07T17:25:32.807Z,100784.88
2019-04-07T17:28:03.619Z,100780.86
2019-04-07T17:30:30.142Z,100786.02
2019-04-07T17:32:58.709Z,100788.11
2019-04-07T17:35:28.502Z,100789.34
2019-04-07T17:38:01.738Z,100796.19
2019-04-07T17:40:30.820Z,100797.33
2019-04-07T17:43:01.815Z,100797.58
2019-04-07T17:45:41.299Z,100802.13
2019-04-07T17:48:37.334Z,100804.51
2019-04-07T17:51:05.300Z,100812.13
2019-04-07T17:53:46.599Z,100816.63
2019-04-07T17:56:22.223Z,100817.60
2019-04-07T17:58:52.428Z,100820.39
2019-04-07T18:01:30.019Z,100817.45
2019-04-07T18:04:14.636Z,100824.94
2019-04-07T18:07:03.499Z,100823.73
2019-04-07T18:09:32.995Z,100825.56
2019-04-07T18:12:14.342Z,100828.23
2019-04-07T18:14:43.814Z,100833.94
2019-04-07T18:17:13.898Z,100841.83
2019-04-07T18:19:44.043Z,100841.44
2019-04-07T18:22:22.112Z,100851.50
2019-04-07T18:24:51.959Z,100855.42
2019-04-07T18:27:34.140Z,100856.77
2019-04-07T18:30:10.481Z,100862.89
2019-04-07T18:32:53.448Z,100865.50
2019-04-07T18:35:31.441Z,100870.31
2019-04-07T18:38:11.063Z,100865.53
2019-04-07T18:41:00.985Z,100873.79
2019-04-07T18:43:31.780Z,100871.18
2019-04-07T18:46:02.009Z,100878.96
2019-04-07T18:48:34.545Z,100878.94
2019-04-07T18:51:05.836Z,100883.74
2019-04-07T18:53:38.549Z,100882.41
2019-04-07T18:56:09.848Z,100884.14
2019-04-07T18:58:48.926Z,100885.84
2019-04-07T19:01:34.205Z,100889.72
2019-04-07T19:04:10.439Z,100886.22
2019-04-07T19:06:46.413Z,100896.16
2019-04-07T19:09:18.939Z,100897.44
2019-04-07T19:12:02.804Z,100902.64
2019-04-07T19:14:40.117Z,100901.30
2019-04-07T19:16:58.892Z,100908.22
2019-04-07T19:19:38.085Z,100914.70
2019-04-07T19:22:17.957Z,100915.95
2019-04-07T19:24:52.157Z,100910.30
2019-04-07T19:27:38.607Z,100907.60
2019-04-07T19:30:13.220Z,100912.34
2019-04-07T19:32:41.813Z,100912.75
2019-04-07T19:35:23.785Z,100917.03
2019-04-07T19:38:09.175Z,100913.96
2019-04-07T19:40:40.151Z,100913.92
2019-04-07T19:43:13.798Z,100909.08
2019-04-07T19:45:48.967Z,100917.31
2019-04-07T19:48:19.152Z,100911.20
2019-04-07T19:50:50.846Z,100910.70
2019-04-07T19:53:32.536Z,100908.01
2019-04-07T19:56:02.484Z,100907.97
2019-04-07T19:58:49.358Z,100915.73
2019-04-07T20:01:31.589Z,100914.79
2019-04-07T20:04:05.348Z,100916.88
2019-04-07T20:06:36.283Z,100919.44
2019-04-07T20:09:11.085Z,100916.75
2019-04-07T20:11:46.050Z,100922.34
2019-04-07T20:14:30.434Z,100917.95
2019-04-07T20:17:04.176Z,100917.86
2019-04-07T20:19:39.472Z,100919.98
2019-04-07T20:22:23.140Z,100925.48
2019-04-07T20:24:56.619Z,100925.83
2019-04-07T20:27:28.773Z,100920.91
2019-04-07T20:30:00.520Z,100922.91
2019-04-07T20:32:33.453Z,100927.57
2019-04-07T20:35:20.870Z,100927.83
2019-04-07T20:38:06.365Z,100928.19
2019-04-07T20:40:46.688Z,100925.02
2019-04-07T20:43:17.703Z,100930.53
2019-04-07T20:46:05.069Z,100927.39
2019-04-07T20:48:36.788Z,100929.04
2019-04-07T20:51:07.192Z,100932.81
2019-04-07T20:53:43.135Z,100937.45
2019-04-07T20:56:19.249Z,100933.48
2019-04-07T20:59:04.597Z,100937.72
2019-04-07T21:01:42.939Z,100932.88
2019-04-07T21:04:17.980Z,100931.89
2019-04-07T21:06:51.077Z,100940.41
2019-04-07T21:09:23.894Z,100936.38
2019-04-07T21:12:00.874Z,100938.41
2019-04-07T21:14:47.373Z,100939.22
2019-04-07T21:17:17.548Z,100936.50
2019-04-07T21:20:05.392Z,100938.95
2019-04-07T21:22:50.816Z,100934.92
2019-04-07T21:25:25.337Z,100936.56
2019-04-07T21:28:06.188Z,100933.82
2019-04-07T21:30:36.786Z,100939.72
2019-04-07T21:33:09.630Z,100938.27
2019-04-07T21:35:56.204Z,100936.83
2019-04-07T21:38:41.395Z,100932.36
2019-04-07T21:41:13.373Z,100932.25
2019-04-07T21:43:59.672Z,100937.76
2019-04-07T21:46:30.423Z,100937.66
2019-04-07T21:49:17.815Z,100939.70
2019-04-07T21:51:53.664Z,100939.59
2019-04-07T21:54:23.777Z,100936.03
2019-04-07T21:57:09.894Z,100938.08
2019-04-07T21:59:40.213Z,100937.05
2019-04-07T22:02:13.659Z,100937.80
2019-04-07T22:04:57.040Z,100935.52
2019-04-07T22:07:33.141Z,100934.18
2019-04-07T22:10:01.645Z,100938.86
2019-04-07T22:12:30.720Z,100931.86
2019-04-07T22:15:00.265Z,100931.34
2019-04-07T22:17:32.615Z,100935.12
2019-04-07T22:19:59.023Z,100934.98
2019-04-07T22:22:27.728Z,100939.18
2019-04-07T22:24:56.153Z,100938.21
2019-04-07T22:27:27.184Z,100935.08
2019-04-07T22:29:54.841Z,100937.17
2019-04-07T22:32:24.354Z,100932.80
2019-04-07T22:34:52.956Z,100931.92
2019-04-07T22:37:22.477Z,100929.23
2019-04-07T22:39:52.712Z,100929.59
2019-04-07T22:42:21.274Z,100933.84
2019-04-07T22:44:53.278Z,100931.61
2019-04-07T22:47:22.294Z,100932.80
2019-04-07T22:49:50.635Z,100932.30
2019-04-07T22:52:19.192Z,100933.95
2019-04-07T22:54:47.818Z,100933.81
2019-04-07T22:57:16.380Z,100924.64
2019-04-07T22:59:44.864Z,100930.53
2019-04-07T23:02:13.723Z,100930.80
2019-04-07T23:04:42.671Z,100933.30
2019-04-07T23:07:11.698Z,100927.09
2019-04-07T23:09:41.138Z,100934.73
2019-04-07T23:12:10.616Z,100933.79
2019-04-07T23:14:40.149Z,100931.13
2019-04-07T23:17:08.738Z,100927.12
2019-04-07T23:19:37.830Z,100929.58
2019-04-07T23:22:06.474Z,100931.60
2019-04-07T23:24:35.035Z,100930.58
2019-04-07T23:27:04.133Z,100927.36
2019-04-07T23:29:32.751Z,100927.14
2019-04-07T23:32:01.834Z,100928.24
2019-04-07T23:34:31.105Z,100928.02
2019-04-07T23:36:59.799Z,100922.33
2019-04-07T23:39:29.186Z,100926.56
2019-04-07T23:41:58.612Z,100929.52
2019-04-07T23:44:27.686Z,100928.14
2019-04-07T23:46:57.117Z,100927.16
2019-04-07T23:49:26.055Z,100926.98
2019-04-07T23:51:55.299Z,100925.13
2019-04-07T23:54:24.787Z,100924.17
2019-04-07T23:56:54.079Z,100923.61
2019-04-07T23:59:22.863Z,100926.95
